Time;durP1;ratioP1;P1;durP2;ratioP2;P2;SDS_P1;SDS_P2;PMS_P1;PMS_P2;Temp;Humidity;BMP_temperature;BMP_pressure;BME280_temperature;BME280_humidity;BME280_pressure;Samples;Min_cycle;Max_cycle;Signal;HPM_P1;HPM_P2
2023/08/23 07:52:47;;;;;;;;;;;28.40;99.90;;;;;;6120412;23;20003;-75
2023/08/23 07:55:13;;;;;;;14.40;10.30;;;28.40;99.90;;;;;;6116374;23;19904;-74
2023/08/23 07:57:39;;;;;;;13.20;10.43;;;28.40;99.90;;;;;;6141893;23;20485;-74
2023/08/23 08:00:06;;;;;;;11.65;10.20;;;28.50;99.90;;;;;;6119316;23;20010;-74
2023/08/23 08:02:31;;;;;;;12.18;10.48;;;28.60;99.90;;;;;;6118369;23;20430;-74
2023/08/23 08:04:57;;;;;;;13.15;9.45;;;28.60;99.90;;;;;;6141708;23;20002;-74
2023/08/23 08:07:23;;;;;;;10.57;9.48;;;28.70;99.90;;;;;;6119037;23;20006;-74
2023/08/23 08:09:48;;;;;;;13.77;9.43;;;28.70;99.90;;;;;;6118503;23;20342;-74
2023/08/23 08:12:14;;;;;;;13.88;10.10;;;28.70;99.90;;;;;;6120228;23;20002;-74
2023/08/23 08:14:40;;;;;;;10.93;9.60;;;28.80;99.90;;;;;;6122113;23;20063;-74
2023/08/23 08:17:05;;;;;;;11.55;10.45;;;28.80;99.90;;;;;;6123887;23;20042;-74
2023/08/23 08:19:31;;;;;;;11.25;10.07;;;28.80;99.90;;;;;;6123812;23;20009;-74
2023/08/23 08:21:57;;;;;;;11.27;10.02;;;28.80;99.90;;;;;;6123891;23;19999;-74
2023/08/23 08:24:23;;;;;;;12.95;9.63;;;28.80;99.90;;;;;;6146931;23;20060;-74
2023/08/23 08:26:48;;;;;;;10.57;9.57;;;28.90;99.90;;;;;;6123695;23;20025;-74
2023/08/23 08:29:14;;;;;;;13.70;10.60;;;28.90;99.90;;;;;;6123856;23;20085;-74
2023/08/23 08:31:40;;;;;;;10.15;9.30;;;28.90;99.90;;;;;;6124106;23;20391;-74
2023/08/23 08:34:06;;;;;;;14.90;10.45;;;29.00;99.90;;;;;;6124631;23;20010;-74
2023/08/23 08:36:31;;;;;;;19.60;10.50;;;29.00;99.90;;;;;;6148039;23;20146;-74
2023/08/23 08:38:57;;;;;;;14.20;10.32;;;29.20;99.90;;;;;;6148605;23;20050;-74
2023/08/23 08:41:23;;;;;;;19.58;10.80;;;29.20;99.90;;;;;;6125513;23;19998;-74
2023/08/23 08:43:50;;;;;;;13.68;10.27;;;29.20;99.90;;;;;;6125869;23;20009;-74
2023/08/23 08:46:16;;;;;;;17.05;10.40;;;29.20;99.90;;;;;;6148350;23;20028;-74
2023/08/23 08:48:42;;;;;;;10.95;9.73;;;29.30;99.90;;;;;;6125920;23;20331;-74
2023/08/23 08:51:18;;;;;;;15.27;9.70;;;29.30;99.90;;;;;;6125518;23;20010;-74
2023/08/23 08:53:47;;;;;;;12.77;10.00;;;29.40;99.90;;;;;;6125931;23;20006;-74
2023/08/23 08:56:13;;;;;;;16.80;9.50;;;29.50;99.90;;;;;;6123556;23;20077;-74
2023/08/23 08:58:39;;;;;;;25.08;11.00;;;29.50;99.90;;;;;;6146468;23;20032;-74
2023/08/23 09:01:07;;;;;;;11.52;10.40;;;29.60;99.90;;;;;;6123674;23;20013;-74
2023/08/23 09:03:33;;;;;;;11.52;10.35;;;29.60;99.90;;;;;;6125329;23;20033;-74
2023/08/23 09:05:59;;;;;;;12.23;11.05;;;29.60;99.90;;;;;;6123719;23;20013;-74
2023/08/23 09:08:25;;;;;;;14.95;10.85;;;29.60;99.90;;;;;;6125409;23;20002;-75
2023/08/23 09:10:51;;;;;;;15.00;10.70;;;29.60;99.90;;;;;;6125038;23;20006;-75
2023/08/23 09:13:17;;;;;;;11.68;10.13;;;29.70;99.90;;;;;;6148393;23;20016;-74
2023/08/23 09:15:42;;;;;;;14.10;11.50;;;29.80;99.90;;;;;;6124845;23;20374;-74
2023/08/23 09:18:08;;;;;;;15.43;11.10;;;29.80;99.90;;;;;;6124707;23;20002;-74
2023/08/23 09:20:35;;;;;;;19.08;11.55;;;29.90;99.90;;;;;;6125126;23;20002;-74
2023/08/23 09:23:01;;;;;;;16.42;11.35;;;29.90;99.90;;;;;;6123220;23;20341;-74
2023/08/23 09:25:27;;;;;;;16.92;11.07;;;30.00;99.90;;;;;;6125744;23;20086;-74
2023/08/23 09:27:56;;;;;;;13.10;10.57;;;30.00;99.90;;;;;;6149797;23;20454;-74
2023/08/23 09:30:22;;;;;;;15.45;10.68;;;30.00;99.90;;;;;;6126094;23;20029;-74
2023/08/23 09:32:48;;;;;;;16.45;11.18;;;30.20;99.90;;;;;;6124695;23;20393;-75
2023/08/23 09:35:16;;;;;;;19.55;11.10;;;30.20;99.90;;;;;;6124574;23;20081;-74
2023/08/23 09:37:43;;;;;;;16.23;10.85;;;30.20;99.90;;;;;;6146415;23;20010;-74
2023/08/23 09:40:23;;;;;;;12.27;10.77;;;30.30;99.90;;;;;;6121234;23;20008;-74
2023/08/23 09:42:52;;;;;;;14.02;10.57;;;30.30;99.90;;;;;;6144244;23;20006;-74
2023/08/23 09:45:21;;;;;;;14.82;10.48;;;30.40;99.90;;;;;;6094133;23;20341;-74
2023/08/23 09:47:54;;;;;;;11.35;10.30;;;30.40;99.90;;;;;;6121566;23;20475;-74
2023/08/23 09:50:22;;;;;;;17.15;10.93;;;30.50;99.90;;;;;;6122338;23;20006;-74
2023/08/23 09:52:57;;;;;;;11.65;9.88;;;30.60;99.90;;;;;;6124795;23;20014;-74
2023/08/23 09:55:24;;;;;;;13.80;10.10;;;30.70;99.90;;;;;;6124779;23;20009;-74
2023/08/23 09:57:54;;;;;;;11.65;9.68;;;30.70;99.90;;;;;;6125233;23;20006;-74
2023/08/23 10:00:27;;;;;;;13.23;10.40;;;30.80;99.90;;;;;;6121405;23;20462;-74
2023/08/23 10:02:53;;;;;;;15.50;10.57;;;30.90;99.90;;;;;;6145521;23;20013;-74
2023/08/23 10:05:20;;;;;;;14.10;10.57;;;30.90;99.90;;;;;;6122232;23;20002;-74
2023/08/23 10:07:46;;;;;;;17.17;11.50;;;31.00;99.90;;;;;;6121008;23;20342;-74
2023/08/23 10:10:12;;;;;;;18.35;11.05;;;31.20;99.90;;;;;;6122230;23;20002;-74
2023/08/23 10:12:43;;;;;;;14.50;10.80;;;31.20;99.90;;;;;;6122851;23;20009;-75
2023/08/23 10:15:10;;;;;;;;;;;31.40;99.90;;;;;;6146816;23;20013;-74
2023/08/23 10:17:37;;;;;;;14.18;11.50;;;31.60;99.90;;;;;;6125099;23;19909;-74
2023/08/23 10:20:09;;;;;;;15.10;10.65;;;31.70;99.90;;;;;;6124865;23;19998;-74
2023/08/23 10:22:36;;;;;;;19.75;11.70;;;31.60;99.90;;;;;;6125085;23;20081;-74
2023/08/23 10:25:12;;;;;;;13.88;11.02;;;31.70;99.90;;;;;;6124645;23;19997;-74
2023/08/23 10:27:39;;;;;;;26.13;11.95;;;31.80;99.90;;;;;;6124994;23;20012;-74
2023/08/23 10:30:08;;;;;;;18.67;11.35;;;32.00;99.90;;;;;;6124525;23;20056;-74
2023/08/23 10:32:36;;;;;;;17.63;10.48;;;32.10;99.90;;;;;;6124955;23;20006;-74
2023/08/23 10:35:01;;;;;;;11.80;9.50;;;32.10;99.90;;;;;;6147567;23;20402;-74
2023/08/23 10:37:27;;;;;;;11.40;10.30;;;32.20;99.90;;;;;;6124662;23;20010;-74
2023/08/23 10:39:54;;;;;;;13.45;10.13;;;32.20;99.90;;;;;;6123036;23;19998;-74
2023/08/23 10:42:21;;;;;;;10.70;9.68;;;32.30;99.90;;;;;;6124765;23;20068;-74
2023/08/23 10:45:00;;;;;;;12.38;10.93;;;32.30;99.90;;;;;;6123340;23;20002;-75
2023/08/23 10:47:26;;;;;;;10.68;9.77;;;32.00;99.90;;;;;;6124793;23;20052;-74
2023/08/23 10:49:52;;;;;;;12.18;10.90;;;31.60;99.90;;;;;;6124646;23;20006;-75
2023/08/23 10:52:20;;;;;;;11.90;10.80;;;31.50;99.90;;;;;;6124577;23;20044;-74
2023/08/23 10:54:46;;;;;;;10.88;9.88;;;31.70;99.90;;;;;;6122608;23;20017;-74
2023/08/23 10:57:12;;;;;;;13.95;10.68;;;31.70;99.90;;;;;;6121985;23;20009;-75
2023/08/23 10:59:38;;;;;;;14.43;10.57;;;31.70;99.90;;;;;;6122241;23;20430;-75
2023/08/23 11:02:04;;;;;;;12.95;11.25;;;31.90;99.90;;;;;;6122874;23;20022;-74
2023/08/23 11:04:30;;;;;;;14.80;10.70;;;32.00;99.90;;;;;;6122463;23;20409;-75
2023/08/23 11:06:56;;;;;;;21.05;11.07;;;32.00;99.90;;;;;;6122591;23;20102;-74
2023/08/23 11:09:22;;;;;;;11.73;10.32;;;32.00;99.90;;;;;;6122902;23;20649;-74
2023/08/23 11:11:48;;;;;;;13.07;11.70;;;32.00;99.90;;;;;;6124386;23;20470;-74
2023/08/23 11:14:14;;;;;;;15.13;11.60;;;32.00;99.90;;;;;;6147551;23;20002;-74
2023/08/23 11:16:39;;;;;;;15.70;11.73;;;32.00;99.90;;;;;;6123593;23;20014;-74
2023/08/23 11:19:09;;;;;;;13.55;11.68;;;32.00;99.90;;;;;;6123863;23;20247;-75
2023/08/23 11:21:35;;;;;;;16.40;11.52;;;32.10;99.90;;;;;;6124419;23;20002;-75
2023/08/23 11:24:05;;;;;;;16.42;11.50;;;32.10;99.90;;;;;;6124512;23;20009;-74
2023/08/23 11:26:34;;;;;;;12.60;11.40;;;32.20;99.90;;;;;;6124029;23;19998;-75
2023/08/23 11:29:00;;;;;;;14.85;11.05;;;32.20;99.90;;;;;;6124547;23;20033;-75
2023/08/23 11:31:27;;;;;;;16.30;12.05;;;32.20;99.90;;;;;;6124251;23;20006;-75
2023/08/23 11:33:53;;;;;;;12.80;10.73;;;32.20;99.90;;;;;;6147437;23;20006;-75
2023/08/23 11:36:19;;;;;;;12.93;11.75;;;32.20;99.90;;;;;;6124147;23;20492;-75
2023/08/23 11:38:48;;;;;;;14.43;11.52;;;32.40;99.90;;;;;;6124420;23;20468;-75
2023/08/23 11:41:14;;;;;;;19.00;11.57;;;32.40;99.90;;;;;;6122274;23;20460;-75
2023/08/23 11:43:46;;;;;;;17.25;12.35;;;32.50;99.80;;;;;;6124467;23;20006;-75
2023/08/23 11:46:12;;;;;;;15.85;11.85;;;32.70;99.90;;;;;;6123942;23;19998;-75
2023/08/23 11:48:38;;;;;;;12.55;11.32;;;32.70;99.70;;;;;;6124386;23;20002;-75
2023/08/23 11:51:05;;;;;;;18.27;11.50;;;32.80;99.60;;;;;;6123844;23;20014;-75
2023/08/23 11:53:31;;;;;;;17.05;11.18;;;32.90;98.60;;;;;;6124233;23;20085;-75
2023/08/23 11:55:57;;;;;;;17.33;10.98;;;32.90;98.50;;;;;;6146503;23;20033;-75
2023/08/23 11:58:23;;;;;;;17.70;11.63;;;32.80;99.00;;;;;;6123994;23;20006;-75
2023/08/23 12:00:50;;;;;;;14.68;10.98;;;32.70;99.80;;;;;;6124025;23;19998;-75
2023/08/23 12:03:16;;;;;;;14.75;11.18;;;32.80;99.00;;;;;;6124249;23;20002;-75
2023/08/23 12:05:42;;;;;;;16.80;11.93;;;32.90;99.10;;;;;;6123735;23;19998;-75
2023/08/23 12:08:08;;;;;;;15.38;11.38;;;33.00;98.40;;;;;;6123996;23;20006;-75
2023/08/23 12:10:34;;;;;;;14.57;10.80;;;32.90;97.60;;;;;;6123729;23;20327;-75
2023/08/23 12:12:59;;;;;;;14.50;11.55;;;33.00;98.40;;;;;;6147254;23;20044;-75
2023/08/23 12:15:25;;;;;;;12.95;10.73;;;33.00;97.80;;;;;;6123836;23;20010;-75
2023/08/23 12:17:53;;;;;;;16.08;11.48;;;33.10;97.10;;;;;;6117327;23;20090;-75
2023/08/23 12:20:19;;;;;;;13.52;10.65;;;33.20;97.20;;;;;;6117986;23;20457;-74
2023/08/23 12:22:50;;;;;;;12.15;10.15;;;33.20;96.90;;;;;;6119760;23;20029;-75
2023/08/23 12:25:15;;;;;;;11.35;10.18;;;33.40;95.40;;;;;;6118821;23;19998;-75
2023/08/23 12:27:41;;;;;;;13.07;10.90;;;33.50;94.90;;;;;;6118459;23;20061;-74
2023/08/23 12:30:10;;;;;;;13.30;10.23;;;33.70;95.00;;;;;;6119745;23;20077;-75
2023/08/23 12:32:36;;;;;;;16.13;10.65;;;33.80;94.30;;;;;;6118952;23;20006;-74
2023/08/23 12:35:04;;;;;;;16.70;11.43;;;33.90;93.90;;;;;;6141637;23;20013;-74
2023/08/23 12:37:29;;;;;;;12.30;10.57;;;34.00;94.70;;;;;;6119966;23;20338;-75
2023/08/23 12:39:56;;;;;;;14.73;10.70;;;34.10;93.60;;;;;;6118351;23;20006;-74
2023/08/23 12:42:22;;;;;;;14.63;11.55;;;34.20;92.50;;;;;;6116916;23;20082;-74
2023/08/23 12:44:48;;;;;;;20.90;10.80;;;34.20;92.70;;;;;;6119603;23;19998;-74
2023/08/23 12:47:14;;;;;;;17.73;10.90;;;34.30;92.20;;;;;;6118590;23;20398;-74
2023/08/23 12:49:40;;;;;;;14.63;10.82;;;34.40;92.80;;;;;;6118993;23;20002;-74
2023/08/23 12:52:06;;;;;;;14.65;10.32;;;34.40;92.80;;;;;;6117549;23;20018;-74
2023/08/23 12:54:35;;;;;;;22.65;11.13;;;34.50;92.70;;;;;;6121152;23;20091;-74
2023/08/23 12:57:01;;;;;;;12.40;10.30;;;34.50;93.10;;;;;;6123912;23;20392;-75
2023/08/23 12:59:26;;;;;;;14.50;10.55;;;34.70;93.20;;;;;;6124174;23;20046;-74
2023/08/23 13:01:53;;;;;;;11.88;10.40;;;34.70;92.50;;;;;;6123936;23;20002;-74
2023/08/23 13:04:19;;;;;;;15.95;11.30;;;34.80;92.40;;;;;;6123650;23;20024;-75
2023/08/23 13:06:45;;;;;;;13.75;10.30;;;34.90;93.00;;;;;;6121435;23;20430;-74
2023/08/23 13:09:11;;;;;;;13.48;10.98;;;34.90;92.40;;;;;;6123701;23;20110;-75
2023/08/23 13:11:37;;;;;;;13.35;10.93;;;35.00;91.70;;;;;;6123587;23;20010;-75
2023/08/23 13:14:03;;;;;;;18.50;11.27;;;35.00;92.60;;;;;;6124071;23;20002;-74
2023/08/23 13:16:28;;;;;;;13.25;10.85;;;35.10;91.80;;;;;;6122867;23;20010;-74
2023/08/23 13:18:54;;;;;;;13.32;11.07;;;35.20;92.60;;;;;;6121812;23;20085;-75
2023/08/23 13:21:20;;;;;;;12.75;10.35;;;35.10;92.30;;;;;;6121218;23;20002;-75
2023/08/23 13:23:45;;;;;;;15.38;10.98;;;35.30;92.20;;;;;;6123377;23;20406;-74
2023/08/23 13:26:11;;;;;;;13.48;10.73;;;35.30;91.00;;;;;;6123020;23;20005;-74
2023/08/23 13:28:37;;;;;;;14.50;10.40;;;35.40;92.10;;;;;;6123499;23;20010;-75
2023/08/23 13:31:04;;;;;;;14.25;10.82;;;35.40;91.40;;;;;;6123805;23;20030;-75
2023/08/23 13:33:30;;;;;;;18.27;11.35;;;35.40;91.10;;;;;;6125226;23;20013;-74
2023/08/23 13:35:56;;;;;;;20.52;10.95;;;35.50;90.30;;;;;;6122834;23;20329;-74
2023/08/23 13:38:21;;;;;;;11.95;10.77;;;35.60;90.40;;;;;;6123153;23;20006;-75
2023/08/23 13:40:47;;;;;;;11.45;10.25;;;35.60;90.60;;;;;;6123019;23;20010;-75
2023/08/23 13:43:13;;;;;;;14.75;11.30;;;35.70;90.10;;;;;;6123324;23;20009;-75
2023/08/23 13:45:41;;;;;;;17.85;10.77;;;35.70;90.40;;;;;;6122703;23;20021;-74
2023/08/23 13:48:07;;;;;;;12.40;11.13;;;35.70;90.10;;;;;;6122951;23;20082;-74
2023/08/23 13:50:32;;;;;;;15.73;11.38;;;35.90;90.10;;;;;;6124440;23;20437;-74
2023/08/23 13:52:58;;;;;;;13.60;10.60;;;35.80;89.80;;;;;;6125116;23;20353;-75
2023/08/23 13:55:26;;;;;;;12.70;10.75;;;35.80;88.00;;;;;;6124799;23;20014;-75
2023/08/23 13:57:52;;;;;;;13.77;10.07;;;35.70;88.10;;;;;;6147792;23;20036;-74
2023/08/23 14:00:18;;;;;;;11.40;10.20;;;35.50;88.30;;;;;;6148142;23;20006;-74
2023/08/23 14:02:44;;;;;;;15.00;10.45;;;35.30;88.50;;;;;;6125463;23;20107;-74
2023/08/23 14:05:10;;;;;;;12.77;10.18;;;35.40;89.90;;;;;;6124948;23;20009;-75
2023/08/23 14:07:36;;;;;;;13.73;10.43;;;35.40;87.80;;;;;;6125257;23;20038;-75
2023/08/23 14:10:02;;;;;;;13.20;10.15;;;35.50;89.40;;;;;;6125136;23;20292;-75
2023/08/23 14:12:28;;;;;;;13.68;11.40;;;35.60;86.40;;;;;;6125095;23;20076;-75
2023/08/23 14:14:53;;;;;;;11.77;10.55;;;35.60;85.20;;;;;;6124900;23;20308;-75
2023/08/23 14:17:19;;;;;;;17.45;9.90;;;35.60;86.20;;;;;;6124829;23;20019;-74
2023/08/23 14:19:49;;;;;;;16.27;11.00;;;35.70;89.00;;;;;;6124918;23;20002;-75
2023/08/23 14:22:19;;;;;;;13.48;11.20;;;35.90;88.60;;;;;;6125188;23;20025;-75
2023/08/23 14:24:44;;;;;;;14.63;10.63;;;36.00;85.70;;;;;;6124912;23;19998;-75
2023/08/23 14:27:10;;;;;;;11.85;10.52;;;36.10;86.30;;;;;;6124950;23;20005;-75
2023/08/23 14:29:36;;;;;;;12.07;10.18;;;36.20;86.00;;;;;;6124915;23;20006;-74
2023/08/23 14:32:02;;;;;;;11.63;9.75;;;36.30;87.50;;;;;;6147636;23;20308;-75
2023/08/23 14:34:28;;;;;;;11.30;10.15;;;36.30;86.20;;;;;;6124795;23;20006;-74
2023/08/23 14:36:54;;;;;;;19.98;10.80;;;36.50;86.40;;;;;;6124953;23;20025;-75
2023/08/23 14:39:20;;;;;;;17.52;11.20;;;36.60;86.50;;;;;;6124698;23;20002;-75
2023/08/23 14:41:46;;;;;;;15.02;10.85;;;36.60;85.30;;;;;;6124756;23;20376;-75
2023/08/23 14:44:12;;;;;;;12.90;11.43;;;36.70;85.60;;;;;;6124733;23;20077;-75
2023/08/23 14:46:38;;;;;;;14.02;10.80;;;36.70;85.20;;;;;;6124712;23;20013;-74
2023/08/23 14:49:04;;;;;;;12.43;11.13;;;36.80;85.30;;;;;;6124940;23;20125;-75
2023/08/23 14:51:30;;;;;;;11.18;10.02;;;36.90;85.30;;;;;;6124339;23;20350;-74
2023/08/23 14:53:56;;;;;;;17.40;11.55;;;37.00;85.10;;;;;;6124821;23;20006;-75
2023/08/23 14:56:23;;;;;;;12.40;10.57;;;37.00;83.80;;;;;;6124146;23;20006;-74
2023/08/23 14:58:48;;;;;;;12.05;10.70;;;37.10;83.90;;;;;;6124787;23;20002;-74
2023/08/23 15:01:14;;;;;;;16.30;10.63;;;37.10;85.50;;;;;;6124330;23;20009;-75
2023/08/23 15:03:40;;;;;;;14.90;10.73;;;37.20;82.10;;;;;;6124708;23;20133;-75
2023/08/23 15:06:06;;;;;;;11.70;10.50;;;37.30;81.90;;;;;;6124295;23;20006;-75
2023/08/23 15:08:31;;;;;;;19.52;11.15;;;37.30;82.80;;;;;;6124789;23;20006;-75
2023/08/23 15:10:58;;;;;;;17.15;10.45;;;37.40;84.60;;;;;;6124115;23;20041;-75
2023/08/23 15:13:25;;;;;;;11.68;10.57;;;37.60;83.30;;;;;;6124718;23;20049;-74
2023/08/23 15:16:01;;;;;;;18.35;10.30;;;37.60;81.70;;;;;;6123021;23;20012;-75
2023/08/23 15:18:27;;;;;;;11.88;10.80;;;37.70;82.30;;;;;;6123310;23;20005;-74
2023/08/23 15:20:54;;;;;;;11.50;10.35;;;37.80;84.40;;;;;;6146437;23;20006;-75
2023/08/23 15:23:20;;;;;;;13.45;10.25;;;37.90;84.20;;;;;;6122324;23;20014;-75
2023/08/23 15:25:46;;;;;;;13.63;11.55;;;38.00;82.00;;;;;;6144393;23;20010;-75
2023/08/23 15:28:12;;;;;;;16.55;10.32;;;38.10;79.90;;;;;;6145114;23;20446;-75
2023/08/23 15:30:38;;;;;;;11.63;10.48;;;38.00;80.00;;;;;;6121912;23;20017;-74
2023/08/23 15:33:04;;;;;;;15.20;10.40;;;38.10;79.80;;;;;;6122111;23;20006;-75
2023/08/23 15:35:30;;;;;;;17.88;10.85;;;38.30;79.40;;;;;;6144644;23;20010;-74
2023/08/23 15:37:56;;;;;;;12.38;11.07;;;38.20;77.10;;;;;;6124264;23;20033;-74
2023/08/23 15:40:22;;;;;;;11.27;10.18;;;38.30;78.50;;;;;;6124166;23;20006;-75
2023/08/23 15:42:48;;;;;;;11.85;10.63;;;38.50;79.60;;;;;;6124062;23;20005;-75
2023/08/23 15:45:14;;;;;;;11.98;10.32;;;38.50;79.40;;;;;;6123696;23;19998;-74
2023/08/23 15:47:39;;;;;;;19.08;11.15;;;38.70;79.10;;;;;;6124316;23;20006;-75
2023/08/23 15:50:05;;;;;;;13.65;10.15;;;38.70;77.00;;;;;;6124039;23;19998;-75
2023/08/23 15:52:31;;;;;;;13.35;11.32;;;38.90;78.60;;;;;;6146869;23;20018;-75
2023/08/23 15:54:59;;;;;;;12.68;10.52;;;39.00;78.70;;;;;;6123846;23;20033;-75
2023/08/23 15:57:24;;;;;;;11.68;10.38;;;39.10;77.30;;;;;;6123923;23;20006;-75
2023/08/23 15:59:50;;;;;;;13.32;9.95;;;39.10;77.00;;;;;;6146991;23;20006;-74
2023/08/23 16:02:16;;;;;;;15.10;10.48;;;39.20;78.70;;;;;;6124317;23;20041;-75
2023/08/23 16:04:42;;;;;;;11.95;10.77;;;39.20;76.80;;;;;;6123884;23;20426;-75
2023/08/23 16:07:07;;;;;;;16.63;10.60;;;39.30;77.30;;;;;;6124325;23;20002;-75
2023/08/23 16:09:33;;;;;;;12.43;10.63;;;39.40;74.20;;;;;;6123901;23;20002;-75
2023/08/23 16:11:59;;;;;;;11.40;10.35;;;39.40;74.00;;;;;;6123858;23;20250;-75
2023/08/23 16:14:26;;;;;;;11.85;10.55;;;39.40;73.70;;;;;;6123971;23;20009;-75
2023/08/23 16:16:51;;;;;;;11.57;10.48;;;39.60;71.60;;;;;;6124075;23;20002;-75
2023/08/23 16:19:17;;;;;;;12.93;11.20;;;39.60;71.40;;;;;;6146674;23;20349;-75
2023/08/23 16:21:43;;;;;;;14.65;10.88;;;39.70;70.30;;;;;;6124036;23;20010;-74
2023/08/23 16:24:09;;;;;;;17.33;12.38;;;39.70;68.40;;;;;;6123898;23;20338;-74
2023/08/23 16:26:35;;;;;;;16.27;11.48;;;39.70;68.10;;;;;;6123799;23;19997;-75
2023/08/23 16:29:00;;;;;;;12.40;11.13;;;39.60;67.60;;;;;;6124131;23;20065;-74
2023/08/23 16:31:26;;;;;;;18.10;10.25;;;39.60;67.80;;;;;;6123718;23;20013;-74
2023/08/23 16:33:52;;;;;;;13.27;10.07;;;39.70;70.90;;;;;;6147074;23;20006;-75
2023/08/23 16:36:18;;;;;;;12.07;10.60;;;39.70;71.40;;;;;;6123628;23;20006;-75
2023/08/23 16:38:43;;;;;;;11.98;10.57;;;39.70;74.00;;;;;;6123901;23;20006;-75
2023/08/23 16:41:09;;;;;;;12.57;10.38;;;39.70;74.50;;;;;;6123540;23;20006;-75
2023/08/23 16:43:35;;;;;;;14.10;11.40;;;39.30;74.80;;;;;;6124082;23;20006;-75
2023/08/23 16:46:01;;;;;;;13.68;10.35;;;39.10;75.90;;;;;;6146698;23;20084;-75
2023/08/23 16:48:27;;;;;;;16.75;11.80;;;39.10;76.20;;;;;;6124062;23;20040;-75
2023/08/23 16:50:54;;;;;;;15.65;10.43;;;39.00;76.50;;;;;;6123708;23;20002;-74
2023/08/23 16:53:19;;;;;;;11.73;10.57;;;39.10;76.30;;;;;;6123949;23;20444;-74
2023/08/23 16:55:45;;;;;;;16.70;11.20;;;39.00;74.20;;;;;;6124713;23;20003;-75
2023/08/23 16:58:11;;;;;;;11.48;10.32;;;38.90;72.90;;;;;;6125617;23;20010;-75
2023/08/23 17:00:36;;;;;;;11.80;10.60;;;38.80;74.90;;;;;;6125562;23;20342;-74
2023/08/23 17:03:03;;;;;;;16.08;10.75;;;38.70;76.50;;;;;;6125848;23;20450;-75
2023/08/23 17:05:29;;;;;;;14.55;10.82;;;38.70;77.20;;;;;;6125279;23;19998;-74
2023/08/23 17:07:54;;;;;;;14.25;11.13;;;38.60;74.20;;;;;;6125565;23;20006;-75
2023/08/23 17:10:20;;;;;;;17.85;10.93;;;38.50;74.10;;;;;;6148555;23;20214;-74
2023/08/23 17:12:47;;;;;;;12.30;10.15;;;38.40;74.20;;;;;;6148653;23;20385;-74
2023/08/23 17:15:12;;;;;;;11.63;10.52;;;38.10;76.90;;;;;;6125350;23;20094;-74
2023/08/23 17:17:38;;;;;;;22.73;11.00;;;37.80;78.80;;;;;;6125658;23;20411;-74
2023/08/23 17:20:06;;;;;;;12.15;11.13;;;37.30;80.60;;;;;;6125299;23;20501;-75
2023/08/23 17:22:32;;;;;;;15.50;10.68;;;37.00;82.40;;;;;;6125885;23;20098;-74
2023/08/23 17:24:58;;;;;;;11.40;10.02;;;36.70;83.70;;;;;;6125308;23;20002;-75
2023/08/23 17:27:24;;;;;;;13.02;10.80;;;36.40;85.90;;;;;;6148322;23;20386;-74
2023/08/23 17:29:50;;;;;;;14.23;11.20;;;36.20;87.30;;;;;;6148163;23;20397;-74
2023/08/23 17:32:17;;;;;;;15.38;10.88;;;36.00;87.80;;;;;;6125613;23;20017;-74
2023/08/23 17:34:43;;;;;;;13.65;10.93;;;35.80;88.70;;;;;;6124972;23;20009;-74
2023/08/23 17:37:08;;;;;;;14.75;11.07;;;35.60;89.30;;;;;;6125494;23;20002;-74
2023/08/23 17:39:37;;;;;;;13.73;11.02;;;35.40;89.50;;;;;;6148074;23;20085;-74
2023/08/23 17:42:03;;;;;;;12.20;11.00;;;35.20;90.20;;;;;;6125288;23;20002;-74
2023/08/23 17:44:28;;;;;;;13.27;11.93;;;35.10;90.80;;;;;;6125252;23;20480;-74
2023/08/23 17:47:03;;;;;;;17.55;11.90;;;35.00;91.40;;;;;;6125387;23;19998;-74
2023/08/23 17:49:32;;;;;;;13.40;11.88;;;34.80;91.80;;;;;;6148023;23;20014;-74
2023/08/23 17:51:58;;;;;;;16.55;11.68;;;34.60;92.30;;;;;;6141128;23;20025;-75
2023/08/23 17:54:23;;;;;;;14.82;12.07;;;34.60;92.70;;;;;;6154373;23;20005;-74
2023/08/23 17:56:49;;;;;;;17.20;10.38;;;34.50;93.00;;;;;;6154584;23;20002;-74
2023/08/23 17:59:15;;;;;;;13.60;11.32;;;34.30;93.50;;;;;;6154468;23;20005;-74
2023/08/23 18:01:46;;;;;;;13.20;11.40;;;34.30;94.20;;;;;;6128287;23;20002;-74
2023/08/23 18:04:12;;;;;;;16.08;10.77;;;34.10;94.60;;;;;;6154443;23;20345;-74
2023/08/23 18:06:38;;;;;;;20.60;11.15;;;34.10;95.10;;;;;;6153981;23;19997;-73
2023/08/23 18:09:05;;;;;;;16.45;11.15;;;34.00;95.30;;;;;;6128555;23;20005;-74
2023/08/23 18:11:30;;;;;;;12.25;11.00;;;33.90;95.30;;;;;;6154096;23;20083;-74
2023/08/23 18:13:56;;;;;;;13.75;11.68;;;33.80;95.50;;;;;;6154568;23;20010;-74
2023/08/23 18:16:22;;;;;;;12.32;11.00;;;33.70;96.00;;;;;;6147069;23;20010;-74
2023/08/23 18:18:47;;;;;;;14.43;10.88;;;33.60;96.60;;;;;;6150545;23;20020;-74
2023/08/23 18:21:13;;;;;;;16.77;11.77;;;33.50;96.90;;;;;;6150808;23;20008;-74
2023/08/23 18:23:38;;;;;;;13.90;11.48;;;33.40;97.60;;;;;;6149767;23;20393;-74
2023/08/23 18:26:07;;;;;;;18.23;11.88;;;33.20;98.50;;;;;;6148396;23;20009;-75
2023/08/23 18:28:33;;;;;;;14.13;12.48;;;33.10;99.20;;;;;;6148957;23;20008;-74
2023/08/23 18:31:01;;;;;;;12.93;10.98;;;33.10;99.90;;;;;;6123197;23;20010;-75
2023/08/23 18:33:29;;;;;;;12.90;11.02;;;33.00;99.90;;;;;;6122860;23;20013;-74
2023/08/23 18:35:56;;;;;;;19.98;12.63;;;32.90;99.90;;;;;;6124432;23;20009;-75
2023/08/23 18:38:22;;;;;;;15.48;11.02;;;32.90;99.90;;;;;;6154136;23;20005;-74
2023/08/23 18:40:47;;;;;;;21.85;12.38;;;32.80;99.90;;;;;;6151883;23;20002;-74
2023/08/23 18:43:13;;;;;;;12.57;11.38;;;32.70;99.90;;;;;;6151805;23;19997;-74
2023/08/23 18:45:39;;;;;;;14.07;11.48;;;32.60;99.90;;;;;;6151333;23;19998;-74
2023/08/23 18:48:05;;;;;;;13.73;12.32;;;32.60;99.90;;;;;;6151883;23;20009;-74
2023/08/23 18:50:31;;;;;;;18.58;11.88;;;32.50;99.90;;;;;;6151563;23;20426;-74
2023/08/23 18:52:56;;;;;;;18.45;11.90;;;32.50;99.90;;;;;;6151434;23;20068;-74
2023/08/23 18:55:22;;;;;;;18.67;11.60;;;32.40;99.90;;;;;;6152732;23;20001;-75
2023/08/23 18:57:48;;;;;;;14.32;11.73;;;32.30;99.90;;;;;;6153944;23;20005;-74
2023/08/23 19:00:15;;;;;;;12.73;11.40;;;32.20;99.90;;;;;;6153704;23;20080;-74
2023/08/23 19:02:44;;;;;;;16.63;11.70;;;32.20;99.90;;;;;;6154170;23;20459;-74
2023/08/23 19:05:09;;;;;;;17.25;12.65;;;32.20;99.90;;;;;;6127501;23;20049;-73
2023/08/23 19:07:35;;;;;;;16.63;12.82;;;32.10;99.90;;;;;;6153918;23;20461;-75
2023/08/23 19:10:02;;;;;;;16.33;11.43;;;31.90;99.90;;;;;;6153924;23;20002;-74
2023/08/23 19:12:28;;;;;;;13.75;11.52;;;31.90;99.90;;;;;;6153879;23;20496;-74
2023/08/23 19:14:53;;;;;;;14.98;12.23;;;31.90;99.90;;;;;;6153346;23;20036;-74
2023/08/23 19:17:19;;;;;;;13.27;11.98;;;31.70;99.90;;;;;;6153860;23;20077;-75
2023/08/23 19:19:45;;;;;;;15.10;12.40;;;31.70;99.90;;;;;;6153355;23;19998;-74
2023/08/23 19:22:11;;;;;;;15.93;11.57;;;31.60;99.90;;;;;;6154073;23;20209;-74
2023/08/23 19:24:37;;;;;;;15.30;11.60;;;31.60;99.90;;;;;;6153531;23;20190;-74
2023/08/23 19:27:02;;;;;;;12.98;11.57;;;31.50;99.90;;;;;;6127547;23;20068;-74
2023/08/23 19:29:28;;;;;;;16.65;11.23;;;31.40;99.90;;;;;;6127449;23;20466;-75
2023/08/23 19:32:01;;;;;;;17.50;12.15;;;31.30;99.90;;;;;;6153603;23;20001;-74
2023/08/23 19:34:27;;;;;;;15.98;11.88;;;31.30;99.90;;;;;;6153046;23;20389;-74
2023/08/23 19:36:52;;;;;;;14.57;11.80;;;31.20;99.90;;;;;;6127676;23;20005;-74
2023/08/23 19:39:18;;;;;;;15.23;11.93;;;31.20;99.90;;;;;;6151632;23;20396;-74
2023/08/23 19:41:45;;;;;;;15.88;11.52;;;31.10;99.90;;;;;;6153190;23;20001;-74
2023/08/23 19:44:10;;;;;;;17.02;11.88;;;31.00;99.90;;;;;;6153282;23;20025;-74
2023/08/23 19:46:36;;;;;;;15.43;12.43;;;31.00;99.90;;;;;;6152163;23;20012;-74
2023/08/23 19:49:02;;;;;;;15.18;12.68;;;30.90;99.90;;;;;;6125927;23;20006;-74
2023/08/23 19:51:28;;;;;;;14.43;12.18;;;30.80;99.90;;;;;;6152425;23;20022;-74
2023/08/23 19:53:53;;;;;;;18.02;11.77;;;30.70;99.90;;;;;;6127118;23;20020;-74
2023/08/23 19:56:19;;;;;;;12.80;11.50;;;30.70;99.90;;;;;;6153126;23;20048;-74
2023/08/23 19:58:45;;;;;;;13.77;11.40;;;30.70;99.90;;;;;;6153257;23;20081;-74
2023/08/23 20:01:11;;;;;;;14.73;11.82;;;30.60;99.90;;;;;;6127090;23;20035;-74
2023/08/23 20:03:36;;;;;;;18.48;11.50;;;30.60;99.90;;;;;;6152707;23;19997;-74
2023/08/23 20:06:04;;;;;;;16.23;12.18;;;30.50;99.90;;;;;;6124776;23;20006;-74
2023/08/23 20:08:30;;;;;;;15.40;12.27;;;30.40;99.90;;;;;;6153337;23;20009;-74
2023/08/23 20:11:00;;;;;;;19.55;12.50;;;30.30;99.90;;;;;;6153283;23;20017;-74
2023/08/23 20:13:25;;;;;;;25.20;12.27;;;30.20;99.90;;;;;;6153502;23;20102;-75
2023/08/23 20:15:51;;;;;;;13.23;11.88;;;30.20;99.90;;;;;;6152882;23;20007;-74